Time;durP1;ratioP1;P1;durP2;ratioP2;P2;SDS_P1;SDS_P2;PMS_P1;PMS_P2;Temp;Humidity;BMP_temperature;BMP_pressure;BME280_temperature;BME280_humidity;BME280_pressure;Samples;Min_cycle;Max_cycle;Signal;HPM_P1;HPM_P2
2019/09/18 11:16:47;;;;;;;10.2;5.1;;;;;;;19.33;50.50195;943.4625;;;;
2019/09/18 11:19:17;;;;;;;14.1;4.6;;;;;;;19.18;51.94043;943.4621;;;;
2019/09/18 11:21:47;;;;;;;14.5;4.9;;;;;;;19.37;52.17188;943.4135;;;;
2019/09/18 11:26:34;;;;;;;12.7;4.8;;;;;;;19.71;50.25391;943.4328;;;;
2019/09/18 11:29:01;;;;;;;11.4;4.7;;;;;;;19.56;50.5752;943.368;;;;
2019/09/18 11:31:26;;;;;;;12.4;4.9;;;;;;;19.54;51.15625;943.3376;;;;
2019/09/18 11:33:59;;;;;;;13.3;4.5;;;;;;;19.55;52.12402;943.3834;;;;
2019/09/18 11:36:30;;;;;;;9.8;4.6;;;;;;;19.87;51.4502;943.2629;;;;
2019/09/18 11:39:02;;;;;;;12.9;4.8;;;;;;;19.24;52.04102;943.2742;;;;
2019/09/18 11:41:34;;;;;;;15.1;4.8;;;;;;;19.33;52.16797;943.2864;;;;
2019/09/18 11:43:56;;;;;;;10.1;5.1;;;;;;;19.72;51.95703;943.3276;;;;
2019/09/18 11:46:31;;;;;;;14.3;5.4;;;;;;;20.17;51.55566;943.2776;;;;
2019/09/18 11:48:59;;;;;;;13.6;4.9;;;;;;;20.61;49.86523;943.3127;;;;
2019/09/18 11:51:29;;;;;;;21.5;5.6;;;;;;;20.71;50.22754;943.2709;;;;
2019/09/18 11:54:03;;;;;;;11.8;5.1;;;;;;;20.82;48.62695;943.2436;;;;
2019/09/18 11:56:36;;;;;;;13.7;4.7;;;;;;;21.18;47.82422;943.1573;;;;
2019/09/18 11:59:09;;;;;;;13.4;4.4;;;;;;;21.44;47.40625;943.1609;;;;
2019/09/18 12:01:43;;;;;;;12.1;4.7;;;;;;;21.49;48.09082;943.1395;;;;
2019/09/18 12:04:14;;;;;;;13.5;4.3;;;;;;;21.39;47.19043;943.1222;;;;
2019/09/18 12:06:48;;;;;;;13.3;4.7;;;;;;;21.98;46.13965;943.0503;;;;
2019/09/18 12:09:20;;;;;;;12.2;5;;;;;;;22.27;44.15332;943.0157;;;;
2019/09/18 12:11:52;;;;;;;9.7;4.3;;;;;;;22.45;44.65234;942.9532;;;;
2019/09/18 12:14:27;;;;;;;12.4;4.6;;;;;;;22.48;44.66699;942.9695;;;;
2019/09/18 12:17:05;;;;;;;10.5;4.7;;;;;;;23.01;43.85156;942.9445;;;;
2019/09/18 12:19:39;;;;;;;12.9;4.7;;;;;;;23.78;41.24414;942.9534;;;;
2019/09/18 12:22:11;;;;;;;10;4.4;;;;;;;23.79;41.20996;942.8872;;;;
2019/09/18 12:24:39;;;;;;;12.2;4.7;;;;;;;25.62;39.00391;942.8675;;;;
2019/09/18 12:27:07;;;;;;;11.5;4.4;;;;;;;28;34.62695;942.7797;;;;
2019/09/18 12:29:37;;;;;;;10.4;4;;;;;;;29.89;30.4541;942.798;;;;
2019/09/18 12:32:10;;;;;;;10.2;4.4;;;;;;;30.72;29.54199;942.7222;;;;
2019/09/18 12:34:44;;;;;;;10.9;4.3;;;;;;;31.92;28.1582;942.7683;;;;
2019/09/18 12:37:18;;;;;;;10.3;4;;;;;;;32.77;26.73438;942.6909;;;;
2019/09/18 12:39:57;;;;;;;9.8;4;;;;;;;32.63;26.34277;942.6564;;;;
2019/09/18 12:42:23;;;;;;;10;4.1;;;;;;;31.46;28.22461;942.6019;;;;
2019/09/18 12:44:55;;;;;;;9;4;;;;;;;31.56;27.52441;942.616;;;;
2019/09/18 12:50:12;;;;;;;9.3;4;;;;;;;31.55;27.05762;942.5469;;;;
2019/09/18 12:52:28;;;;;;;9;4.1;;;;;;;32.53;26.36035;942.5259;;;;
2019/09/18 12:55:00;;;;;;;10.3;4;;;;;;;32.5;25.69824;942.5304;;;;
2019/09/18 12:57:29;;;;;;;7.4;3.9;;;;;;;32.01;26.47363;942.502;;;;
2019/09/18 13:00:12;;;;;;;7.9;4.3;;;;;;;29.95;28.47656;942.4939;;;;
2019/09/18 13:02:22;;;;;;;8.7;3.9;;;;;;;31.06;28.17676;942.4885;;;;
2019/09/18 13:04:53;;;;;;;8.9;4.1;;;;;;;31.89;26.37109;942.53;;;;
2019/09/18 13:07:26;;;;;;;11.7;4;;;;;;;31.69;27.41406;942.5061;;;;
2019/09/18 13:09:59;;;;;;;8.4;3.8;;;;;;;32.26;26.46387;942.4526;;;;
2019/09/18 13:12:23;;;;;;;7.6;3.5;;;;;;;31.76;26.92676;942.4911;;;;
2019/09/18 13:15:22;;;;;;;10;4;;;;;;;31.93;26.49316;942.4891;;;;
2019/09/18 13:17:44;;;;;;;9.8;4;;;;;;;32.21;26.6416;942.4545;;;;
2019/09/18 13:20:12;;;;;;;13.1;4.2;;;;;;;33.09;25.92383;942.498;;;;
2019/09/18 13:22:44;;;;;;;8.2;3.9;;;;;;;33.62;24.13867;942.4933;;;;
2019/09/18 13:25:18;;;;;;;11.1;4.1;;;;;;;32.93;25.24316;942.4777;;;;
2019/09/18 13:27:41;;;;;;;7.9;4.3;;;;;;;31.82;27.06152;942.4341;;;;
2019/09/18 13:30:08;;;;;;;8.8;4.2;;;;;;;31.84;25.99707;942.3789;;;;
2019/09/18 13:33:10;;;;;;;9.9;3.9;;;;;;;31.38;27.4541;942.3692;;;;
2019/09/18 13:35:41;;;;;;;10.8;4.2;;;;;;;30.57;28.3252;942.3108;;;;
2019/09/18 13:38:11;;;;;;;9.5;4;;;;;;;30.36;28.37109;942.3748;;;;
2019/09/18 13:40:37;;;;;;;8.3;4.1;;;;;;;29.81;29.76855;942.3808;;;;
2019/09/18 13:43:05;;;;;;;7.4;3.9;;;;;;;29.17;30.77441;942.351;;;;
2019/09/18 13:45:30;;;;;;;10.2;4;;;;;;;29.26;30.67285;942.3536;;;;
2019/09/18 13:48:04;;;;;;;8.2;4.1;;;;;;;29.06;30.15918;942.3658;;;;
2019/09/18 13:50:29;;;;;;;8.1;3.9;;;;;;;29.1;30.86426;942.2676;;;;
2019/09/18 13:53:03;;;;;;;8.7;3.9;;;;;;;28.75;31.56641;942.2492;;;;
2019/09/18 13:55:39;;;;;;;11.8;3.9;;;;;;;28.05;31.85059;942.2608;;;;
2019/09/18 13:58:09;;;;;;;10.7;4.3;;;;;;;27.92;31.22363;942.1722;;;;
2019/09/18 14:00:50;;;;;;;9.4;4;;;;;;;27.97;32.93652;942.2019;;;;
2019/09/18 14:03:12;;;;;;;11.2;4.1;;;;;;;27.51;33.06934;942.1844;;;;
2019/09/18 14:05:50;;;;;;;8.5;4.1;;;;;;;26.92;33.84375;942.185;;;;
2019/09/18 14:08:22;;;;;;;8.5;3.9;;;;;;;26.74;34.1377;942.1809;;;;
2019/09/18 14:10:53;;;;;;;9.9;4;;;;;;;26.28;35.0498;942.1636;;;;
2019/09/18 14:14:12;;;;;;;9.5;3.9;;;;;;;25.29;37.16895;942.2188;;;;
2019/09/18 14:16:59;;;;;;;10.3;4.4;;;;;;;24.15;39.05273;942.1289;;;;
2019/09/18 14:19:05;;;;;;;10;4.3;;;;;;;23.57;41.12988;942.1774;;;;
2019/09/18 14:21:40;;;;;;;8.6;4.4;;;;;;;23.38;41.27832;942.1789;;;;
2019/09/18 14:24:20;;;;;;;9.5;4.4;;;;;;;23.05;42.1748;942.1742;;;;
2019/09/18 14:38:06;;;;;;;10.9;4.4;;;;;;;21.13;46.84668;942.2272;;;;
2019/09/18 14:38:54;;;;;;;10.1;4.4;;;;;;;20.46;47.54785;942.2209;;;;
2019/09/18 14:42:12;;;;;;;8.2;3.6;;;;;;;20.36;48.43652;942.2307;;;;
2019/09/18 14:46:12;;;;;;;9.4;3.9;;;;;;;19.98;49.39746;942.1663;;;;
2019/09/18 14:49:11;;;;;;;10.1;3.8;;;;;;;19.88;48.93164;942.1836;;;;
2019/09/18 14:51:36;;;;;;;11.2;4.1;;;;;;;19.54;50.22363;942.2413;;;;
2019/09/18 14:54:06;;;;;;;8.4;3.7;;;;;;;19.36;50.92383;942.2249;;;;
2019/09/18 14:56:39;;;;;;;11.9;3.7;;;;;;;19.55;51.21484;942.2145;;;;
2019/09/18 14:59:05;;;;;;;8.9;3.5;;;;;;;19.48;51.24023;942.2584;;;;
2019/09/18 15:01:33;;;;;;;10.2;3.6;;;;;;;19.34;51.24902;942.2202;;;;
2019/09/18 15:04:00;;;;;;;8.5;3.6;;;;;;;19.58;50.78613;942.222;;;;
2019/09/18 15:06:30;;;;;;;8.9;3.5;;;;;;;19.42;50.34863;942.2731;;;;
2019/09/18 15:09:04;;;;;;;9.5;3.5;;;;;;;19.62;50.47656;942.1891;;;;
2019/09/18 15:11:36;;;;;;;9.8;3.6;;;;;;;19.44;50.24609;942.2679;;;;
2019/09/18 15:14:08;;;;;;;12.8;3.9;;;;;;;19.34;51.4707;942.2654;;;;
2019/09/18 15:16:46;;;;;;;10.4;3.7;;;;;;;19.39;51.2666;942.2921;;;;
2019/09/18 15:19:15;;;;;;;13;3.9;;;;;;;19.36;51.85742;942.2796;;;;
2019/09/18 15:21:53;;;;;;;11.5;4.1;;;;;;;19.24;51.78418;942.2737;;;;
2019/09/18 15:24:18;;;;;;;13.7;4.2;;;;;;;19.22;52.02637;942.3118;;;;
2019/09/18 15:26:44;;;;;;;12.2;4.2;;;;;;;19.09;52.2334;942.3025;;;;
2019/09/18 15:29:11;;;;;;;11.6;4.4;;;;;;;18.92;52.40918;942.335;;;;
2019/09/18 15:31:43;;;;;;;11.9;4.2;;;;;;;18.72;51.52637;942.3475;;;;
2019/09/18 15:34:11;;;;;;;11.2;4.4;;;;;;;18.63;54.0498;942.3384;;;;
2019/09/18 15:36:42;;;;;;;11.9;3.7;;;;;;;18.59;53.76563;942.4063;;;;
2019/09/18 15:39:13;;;;;;;11.6;3.9;;;;;;;18.45;53.95898;942.4081;;;;
2019/09/18 15:41:40;;;;;;;14.1;4.2;;;;;;;18.33;54.07129;942.3943;;;;
2019/09/18 15:44:17;;;;;;;14.1;4;;;;;;;18.32;55.26758;942.4057;;;;
2019/09/18 15:46:52;;;;;;;14;3.5;;;;;;;18.19;55.07715;942.4216;;;;
2019/09/18 15:49:26;;;;;;;9.9;3.7;;;;;;;18.17;55.34082;942.4703;;;;
2019/09/18 15:51:50;;;;;;;9.1;3.7;;;;;;;18.19;55.69336;942.4603;;;;
2019/09/18 15:54:20;;;;;;;9.7;4;;;;;;;18;56.07422;942.4585;;;;
2019/09/18 15:56:45;;;;;;;12.4;4;;;;;;;17.93;56.28711;942.457;;;;
2019/09/18 15:59:20;;;;;;;13.4;4;;;;;;;17.85;56.21875;942.4902;;;;
2019/09/18 16:02:10;;;;;;;14;4;;;;;;;17.79;56.17676;942.5002;;;;
2019/09/18 16:04:41;;;;;;;10.1;3.7;;;;;;;17.54;57.47852;942.5136;;;;
2019/09/18 16:07:14;;;;;;;10.5;4.2;;;;;;;17.46;57.03906;942.5273;;;;
2019/09/18 16:09:39;;;;;;;10.3;3.4;;;;;;;17.39;56.74023;942.5067;;;;
2019/09/18 16:12:13;;;;;;;9.9;3.9;;;;;;;17.51;58.06738;942.555;;;;
2019/09/18 16:14:38;;;;;;;11.6;3.7;;;;;;;17.51;57.50977;942.5726;;;;
2019/09/18 16:17:10;;;;;;;11.7;3.5;;;;;;;17.52;57.27832;942.5719;;;;
2019/09/18 16:19:46;;;;;;;13.5;3.6;;;;;;;17.45;56.74805;942.5845;;;;
2019/09/18 16:22:10;;;;;;;12.3;3.6;;;;;;;17.33;56.72168;942.5193;;;;
2019/09/18 16:24:43;;;;;;;12.3;3.7;;;;;;;17.35;57.62793;942.6022;;;;
2019/09/18 16:27:09;;;;;;;10.8;3.7;;;;;;;17.42;57.54492;942.6235;;;;
2019/09/18 16:29:44;;;;;;;11.9;3.6;;;;;;;17.29;58.2334;942.6205;;;;
2019/09/18 16:32:11;;;;;;;10.8;3.8;;;;;;;17.23;57.26465;942.6331;;;;
2019/09/18 16:34:46;;;;;;;10.2;3.5;;;;;;;17.2;57.95703;942.6523;;;;
2019/09/18 16:37:19;;;;;;;8.1;3.2;;;;;;;17.04;56.89258;942.6216;;;;
2019/09/18 16:39:51;;;;;;;11.9;3.9;;;;;;;16.84;57.47949;942.7195;;;;
2019/09/18 16:42:26;;;;;;;12.5;3.6;;;;;;;16.7;57.87891;942.6767;;;;
2019/09/18 16:44:54;;;;;;;8.9;3.2;;;;;;;16.53;57.68262;942.6942;;;;
2019/09/18 16:48:10;;;;;;;8;3.1;;;;;;;16.7;58.68945;942.6358;;;;
2019/09/18 16:50:24;;;;;;;11.8;3.9;;;;;;;16.76;57.94336;942.7584;;;;
2019/09/18 16:52:48;;;;;;;10.4;3.3;;;;;;;16.65;58.85547;942.7178;;;;
2019/09/18 16:55:19;;;;;;;8.8;3.5;;;;;;;16.69;57.95898;942.713;;;;
2019/09/18 16:58:14;;;;;;;8.4;3.4;;;;;;;16.48;57.83691;942.7122;;;;
2019/09/18 17:00:47;;;;;;;7.6;3.1;;;;;;;16.68;57.91113;942.7291;;;;
2019/09/18 17:03:19;;;;;;;8.2;3.1;;;;;;;16.8;56.53613;942.6993;;;;
2019/09/18 17:06:26;;;;;;;12.1;3.6;;;;;;;16.62;56.67578;942.7445;;;;
2019/09/18 17:08:35;;;;;;;9.8;3.4;;;;;;;16.69;57.47363;942.7717;;;;
2019/09/18 17:11:00;;;;;;;11.7;3.5;;;;;;;16.62;58.75977;942.7611;;;;
2019/09/18 17:13:32;;;;;;;8.5;3;;;;;;;16.6;57.90039;942.7813;;;;
2019/09/18 17:16:02;;;;;;;8.5;3.1;;;;;;;16.7;57.91309;942.8256;;;;
2019/09/18 17:19:13;;;;;;;7.8;3;;;;;;;16.54;59.41016;942.8831;;;;
2019/09/18 17:21:37;;;;;;;8.8;2.7;;;;;;;16.52;59.6377;942.8992;;;;
2019/09/18 17:24:04;;;;;;;12;4;;;;;;;16.48;58.41602;942.8198;;;;
2019/09/18 17:26:38;;;;;;;11.3;3.1;;;;;;;16.55;58.91211;942.9746;;;;
2019/09/18 17:29:09;;;;;;;12.4;3.7;;;;;;;16.61;57.43848;942.9486;;;;
2019/09/18 17:31:32;;;;;;;9.8;3.3;;;;;;;16.45;57.27734;942.9833;;;;
2019/09/18 17:33:57;;;;;;;11;3.2;;;;;;;16.34;58.51367;942.9739;;;;
2019/09/18 17:36:21;;;;;;;11.1;3.2;;;;;;;16.34;57.48438;942.9779;;;;
2019/09/18 17:38:53;;;;;;;9.1;3.4;;;;;;;16.21;58.42773;942.9172;;;;
2019/09/18 17:41:27;;;;;;;11.3;3.4;;;;;;;16.25;57.99414;943.0234;;;;
2019/09/18 17:43:54;;;;;;;9.4;2.8;;;;;;;16.34;58.95313;943.0606;;;;
2019/09/18 17:46:19;;;;;;;10.1;3.3;;;;;;;16.39;58.625;943.1424;;;;
2019/09/18 17:48:46;;;;;;;9.5;3.1;;;;;;;16.37;58.19336;943.1916;;;;
2019/09/18 17:51:14;;;;;;;10.7;3.4;;;;;;;16.39;58.10449;943.1424;;;;
2019/09/18 17:53:36;;;;;;;9.9;2.8;;;;;;;16.35;59.47363;943.2753;;;;
2019/09/18 17:56:09;;;;;;;8.2;3;;;;;;;16.42;58.03809;943.2744;;;;
2019/09/18 17:59:09;;;;;;;8.2;2.8;;;;;;;16.47;58.63477;943.2589;;;;
2019/09/18 18:04:13;;;;;;;8.1;2.9;;;;;;;16.53;59.17578;943.4065;;;;
2019/09/18 18:06:38;;;;;;;13.8;3.1;;;;;;;16.49;59.35645;943.4043;;;;
2019/09/18 18:09:13;;;;;;;10.2;3;;;;;;;16.5;59.47266;943.4275;;;;
2019/09/18 18:11:45;;;;;;;11.1;2.9;;;;;;;16.5;59.2998;943.483;;;;
2019/09/18 18:14:15;;;;;;;9.6;2.8;;;;;;;16.48;58.21973;943.524;;;;
2019/09/18 18:16:47;;;;;;;11.4;3.1;;;;;;;16.16;58.50098;943.5627;;;;
2019/09/18 18:19:12;;;;;;;10.5;2.8;;;;;;;16.09;57.87891;943.5477;;;;
2019/09/18 18:21:37;;;;;;;7.7;2.7;;;;;;;16.17;58.25977;943.5875;;;;
2019/09/18 18:24:10;;;;;;;9.6;2.8;;;;;;;16.2;57.93945;943.6052;;;;
2019/09/18 18:26:47;;;;;;;9.4;2.6;;;;;;;16.16;56.92773;943.7209;;;;
2019/09/18 18:29:15;;;;;;;9.2;2.7;;;;;;;16.16;57.95801;943.7089;;;;
2019/09/18 18:31:41;;;;;;;11.1;2.7;;;;;;;16.16;58.14258;943.7305;;;;
2019/09/18 18:34:13;;;;;;;9.5;2.5;;;;;;;16.16;58.13086;943.7121;;;;
2019/09/18 18:36:45;;;;;;;12.3;2.7;;;;;;;16.13;58.21973;943.7403;;;;
2019/09/18 18:39:24;;;;;;;8.7;2.8;;;;;;;16.06;57.72461;943.7622;;;;
2019/09/18 18:41:50;;;;;;;10.9;2.8;;;;;;;16.04;57.92969;943.8161;;;;
2019/09/18 18:44:22;;;;;;;8.9;2.5;;;;;;;15.87;58.42773;943.8081;;;;
2019/09/18 18:47:05;;;;;;;14;2.8;;;;;;;15.52;57.53906;943.7925;;;;
2019/09/18 18:49:28;;;;;;;9.6;2.6;;;;;;;15.52;57.35449;943.8848;;;;
2019/09/18 18:52:00;;;;;;;10.4;2.9;;;;;;;15.35;57.84961;943.8702;;;;
2019/09/18 18:54:32;;;;;;;10.7;2.7;;;;;;;15.32;57.71973;943.8091;;;;
2019/09/18 18:56:57;;;;;;;9.6;2.6;;;;;;;15.3;58.43262;943.8669;;;;
2019/09/18 18:59:26;;;;;;;8;2.7;;;;;;;15.19;57.65625;943.8641;;;;
2019/09/18 19:01:52;;;;;;;8.6;2.7;;;;;;;15.29;58.22363;943.8572;;;;
2019/09/18 19:04:22;;;;;;;10.9;2.8;;;;;;;15.19;57.76074;943.8995;;;;
2019/09/18 19:06:57;;;;;;;9.5;2.8;;;;;;;15.27;58.08301;943.8934;;;;
2019/09/18 19:09:35;;;;;;;10.7;2.5;;;;;;;15.26;57.12402;943.8733;;;;
2019/09/18 19:11:51;;;;;;;11.7;2.6;;;;;;;15.19;57.19531;943.8577;;;;
2019/09/18 19:14:22;;;;;;;9.3;2.3;;;;;;;15.3;57.11719;943.7714;;;;
2019/09/18 19:17:16;;;;;;;10.1;2.5;;;;;;;15.11;56.58398;943.848;;;;
2019/09/18 19:19:48;;;;;;;8.9;2.5;;;;;;;15.01;56.98633;943.834;;;;
2019/09/18 19:22:10;;;;;;;10;2.3;;;;;;;14.98;57.0625;943.9012;;;;
2019/09/18 19:24:36;;;;;;;9.4;2.3;;;;;;;15.1;56.74512;943.9395;;;;
2019/09/18 19:27:15;;;;;;;9.2;2.7;;;;;;;15.1;57.0791;943.937;;;;
2019/09/18 19:29:43;;;;;;;10.1;2.7;;;;;;;15.08;56.55664;943.9363;;;;
2019/09/18 19:32:14;;;;;;;9;2.5;;;;;;;15.01;57.41406;943.9663;;;;
2019/09/18 19:34:41;;;;;;;10.2;2.4;;;;;;;14.99;56.86914;943.9647;;;;
2019/09/18 19:37:14;;;;;;;8.3;2.7;;;;;;;14.91;57.8623;944.0552;;;;
2019/09/18 19:39:49;;;;;;;10.8;2.7;;;;;;;14.96;57.5;944.0625;;;;
2019/09/18 19:42:13;;;;;;;8.9;2.4;;;;;;;14.98;57.32813;944.0881;;;;
2019/09/18 19:44:40;;;;;;;7.9;2.3;;;;;;;14.94;57.7959;944.157;;;;
2019/09/18 19:47:13;;;;;;;13.3;2.6;;;;;;;14.83;58.05957;944.144;;;;
2019/09/18 19:52:11;;;;;;;10;2.6;;;;;;;14.88;57.8916;944.0831;;;;
2019/09/18 19:54:38;;;;;;;11.7;2.6;;;;;;;14.92;57.57324;944.0439;;;;
2019/09/18 19:57:09;;;;;;;10.6;2.6;;;;;;;15.05;57.24609;944.0829;;;;
2019/09/18 19:59:34;;;;;;;7.1;2.2;;;;;;;14.86;59.01953;944.1537;;;;
2019/09/18 20:02:01;;;;;;;10.7;2.4;;;;;;;14.75;57.84082;944.1403;;;;
2019/09/18 20:04:30;;;;;;;8.3;2.5;;;;;;;14.75;58.30176;944.1395;;;;
2019/09/18 20:07:11;;;;;;;9.9;2.5;;;;;;;14.8;58.05469;944.1508;;;;
2019/09/18 20:09:34;;;;;;;10.2;2.5;;;;;;;14.86;58.38477;944.1136;;;;
2019/09/18 20:12:04;;;;;;;9.6;2.6;;;;;;;14.92;56.53711;944.1482;;;;
2019/09/18 20:14:33;;;;;;;9.5;2.2;;;;;;;14.83;59.08496;944.1665;;;;
2019/09/18 20:16:57;;;;;;;9.4;2.3;;;;;;;14.79;58.17969;944.1453;;;;
2019/09/18 20:19:33;;;;;;;9.9;2.6;;;;;;;14.87;58.70801;944.1513;;;;
2019/09/18 20:22:03;;;;;;;12.2;2.5;;;;;;;14.66;57.55176;944.1922;;;;
2019/09/18 20:24:28;;;;;;;8.5;2.4;;;;;;;14.69;57.44043;944.2155;;;;
2019/09/18 20:26:58;;;;;;;7;2.1;;;;;;;14.74;58.35645;944.311;;;;
2019/09/18 20:29:49;;;;;;;8.1;2.3;;;;;;;14.69;57.3252;944.3405;;;;
2019/09/18 20:31:53;;;;;;;10.5;2.2;;;;;;;14.71;57.66113;944.3326;;;;
2019/09/18 20:36:34;;;;;;;10.6;2.2;;;;;;;14.6;57.16406;944.4177;;;;
2019/09/18 20:38:57;;;;;;;13.1;2.4;;;;;;;14.5;56.27441;944.3731;;;;
2019/09/18 20:41:29;;;;;;;10.5;2.2;;;;;;;14.54;55.98047;944.4263;;;;
2019/09/18 20:44:08;;;;;;;11.3;2.3;;;;;;;14.56;56.38672;944.3998;;;;
2019/09/18 20:46:42;;;;;;;8.4;2.2;;;;;;;14.56;56.88184;944.4127;;;;
2019/09/18 20:49:07;;;;;;;12.1;2.4;;;;;;;14.52;56.16309;944.4246;;;;
2019/09/18 20:51:31;;;;;;;8;2.1;;;;;;;14.51;55.84961;944.4397;;;;
2019/09/18 20:54:02;;;;;;;7;2;;;;;;;14.5;55.8252;944.4501;;;;
2019/09/18 20:56:25;;;;;;;6.8;1.9;;;;;;;14.42;56.10352;944.4359;;;;
2019/09/18 20:58:48;;;;;;;10.4;2.4;;;;;;;14.41;55.7793;944.4323;;;;
2019/09/18 21:01:24;;;;;;;8.1;2.1;;;;;;;14.42;56.0332;944.423;;;;
2019/09/18 21:04:12;;;;;;;7.9;2.3;;;;;;;14.36;57.2002;944.4553;;;;
2019/09/18 21:06:17;;;;;;;7.3;2.2;;;;;;;14.41;57.2666;944.4227;;;;
2019/09/18 21:08:59;;;;;;;6.6;1.9;;;;;;;14.43;58.32813;944.3862;;;;
2019/09/18 21:11:09;;;;;;;10.3;2.1;;;;;;;14.45;58.14648;944.3481;;;;
2019/09/18 21:13:32;;;;;;;8.3;2;;;;;;;14.5;57.91016;944.4277;;;;
2019/09/18 21:16:00;;;;;;;10;2.2;;;;;;;14.53;58.77832;944.4126;;;;
2019/09/18 21:18:25;;;;;;;10;2.2;;;;;;;14.4;56.78027;944.4554;;;;
2019/09/18 21:20:55;;;;;;;8.4;2.1;;;;;;;14.4;58.57813;944.4891;;;;
2019/09/18 21:23:18;;;;;;;9;2.2;;;;;;;14.36;57.83496;944.4777;;;;
2019/09/18 21:25:41;;;;;;;7.7;2.1;;;;;;;14.37;57.59473;944.4826;;;;
2019/09/18 21:28:05;;;;;;;6.9;2;;;;;;;14.36;57.87988;944.452;;;;
2019/09/18 21:30:35;;;;;;;9.3;2.3;;;;;;;14.37;59.34375;944.5066;;;;
2019/09/18 21:33:02;;;;;;;8;2.3;;;;;;;14.29;58.22949;944.5206;;;;
2019/09/18 21:35:57;;;;;;;9.1;2.6;;;;;;;14.23;58.7959;944.5347;;;;
2019/09/18 21:38:17;;;;;;;7.8;2;;;;;;;14.23;57.65625;944.55;;;;
2019/09/18 21:41:17;;;;;;;6.7;2;;;;;;;14.15;59.58008;944.6085;;;;
2019/09/18 21:43:43;;;;;;;8.8;2.4;;;;;;;14.17;60.1123;944.6086;;;;
2019/09/18 21:46:08;;;;;;;8.7;2.4;;;;;;;14.18;59.49219;944.6334;;;;
2019/09/18 21:48:37;;;;;;;8.5;2.2;;;;;;;14.11;60.17188;944.6219;;;;
2019/09/18 21:51:03;;;;;;;8.9;2.3;;;;;;;14.13;61.08496;944.6124;;;;
2019/09/18 21:53:37;;;;;;;8.8;2.3;;;;;;;14.08;60.21484;944.6385;;;;
2019/09/18 21:56:07;;;;;;;10.3;2.8;;;;;;;14.02;61.26563;944.6797;;;;
2019/09/18 21:58:33;;;;;;;8.1;2.3;;;;;;;13.97;61.37402;944.6824;;;;
2019/09/18 22:01:14;;;;;;;6.8;2.1;;;;;;;13.91;61.96387;944.7195;;;;
2019/09/18 22:03:33;;;;;;;10.4;2.3;;;;;;;13.78;63.02539;944.6719;;;;
2019/09/18 22:06:11;;;;;;;7.4;2.3;;;;;;;13.85;63.00195;944.668;;;;
2019/09/18 22:08:39;;;;;;;10.4;2.8;;;;;;;13.82;62.91699;944.7109;;;;
2019/09/18 22:11:00;;;;;;;8.5;2.7;;;;;;;13.73;62.69727;944.7004;;;;
2019/09/18 22:13:27;;;;;;;8;2.9;;;;;;;13.81;63.16895;944.7161;;;;
2019/09/18 22:15:55;;;;;;;14.4;2.8;;;;;;;13.8;63.24805;944.7104;;;;
2019/09/18 22:18:19;;;;;;;8.7;2.5;;;;;;;13.74;63.71094;944.7461;;;;
2019/09/18 22:20:46;;;;;;;8.7;2.8;;;;;;;13.69;64.81934;944.7681;;;;
2019/09/18 22:23:13;;;;;;;9.1;2.6;;;;;;;13.7;64.02637;944.7673;;;;
2019/09/18 22:25:40;;;;;;;7.6;2.4;;;;;;;13.65;64.33008;944.7486;;;;
2019/09/18 22:28:08;;;;;;;11.2;2.6;;;;;;;13.65;62.46777;944.7494;;;;
2019/09/18 22:30:32;;;;;;;7.8;2.5;;;;;;;13.62;62.33691;944.7523;;;;
2019/09/18 22:33:02;;;;;;;7.4;2.6;;;;;;;13.61;61.97852;944.7031;;;;
2019/09/18 22:35:33;;;;;;;10.7;2.7;;;;;;;13.63;63.58008;944.7068;;;;
2019/09/18 22:37:56;;;;;;;10.4;2.7;;;;;;;13.63;64.25781;944.7349;;;;
2019/09/18 22:40:20;;;;;;;9.7;2.6;;;;;;;13.62;64.57715;944.7115;;;;
2019/09/18 22:42:46;;;;;;;7.8;2.7;;;;;;;13.63;65.07324;944.6555;;;;
2019/09/18 22:45:11;;;;;;;8;2.4;;;;;;;13.49;65.85742;944.7117;;;;
2019/09/18 22:47:40;;;;;;;9.9;2.9;;;;;;;13.44;66.28809;944.6409;;;;
2019/09/18 22:50:07;;;;;;;7.2;2.4;;;;;;;13.43;65.0332;944.6744;;;;
2019/09/18 22:52:35;;;;;;;9.6;3.3;;;;;;;13.42;64.69727;944.7296;;;;
2019/09/18 22:54:58;;;;;;;9.7;2.9;;;;;;;13.38;64.42773;944.7897;;;;
2019/09/18 22:57:23;;;;;;;8;2.8;;;;;;;13.24;66.22168;944.7836;;;;
2019/09/18 22:59:57;;;;;;;11.7;3;;;;;;;13.28;66.29785;944.8711;;;;
2019/09/18 23:02:23;;;;;;;9;2.9;;;;;;;13.32;66.0957;944.8835;;;;
2019/09/18 23:04:47;;;;;;;8.6;2.9;;;;;;;13.37;65.9668;944.9072;;;;
2019/09/18 23:07:16;;;;;;;7.5;2.9;;;;;;;13.37;66.56445;944.8704;;;;
2019/09/18 23:09:42;;;;;;;9.2;3.3;;;;;;;13.35;66.76855;944.8894;;;;
2019/09/18 23:12:11;;;;;;;7.1;2.7;;;;;;;13.3;66.40527;944.8602;;;;
2019/09/18 23:14:43;;;;;;;11.3;2.8;;;;;;;13.28;65.53906;944.9103;;;;
2019/09/18 23:17:08;;;;;;;7.9;2.5;;;;;;;13.27;65.91699;944.8638;;;;
2019/09/18 23:19:35;;;;;;;9.5;2.7;;;;;;;13.25;66.37402;944.8636;;;;
2019/09/18 23:21:59;;;;;;;11;3.2;;;;;;;13.22;66.04688;944.8641;;;;
2019/09/18 23:24:26;;;;;;;8;2.7;;;;;;;13.16;66.50781;944.8638;;;;
2019/09/18 23:26:53;;;;;;;8.9;2.7;;;;;;;13.07;66.36914;944.902;;;;
2019/09/18 23:29:17;;;;;;;6.9;2.4;;;;;;;13.08;66.91016;944.9437;;;;
2019/09/18 23:31:41;;;;;;;8.1;2.7;;;;;;;13.07;66.82813;944.9308;;;;
2019/09/18 23:34:13;;;;;;;9.8;2.8;;;;;;;13.03;65.4668;944.98;;;;
2019/09/18 23:36:40;;;;;;;8.6;2.6;;;;;;;13.06;65.53906;944.9794;;;;
2019/09/18 23:39:09;;;;;;;8.7;2.6;;;;;;;13.12;64.28516;944.9681;;;;
2019/09/18 23:41:33;;;;;;;10.4;2.7;;;;;;;13.16;64.7959;944.954;;;;
2019/09/18 23:43:57;;;;;;;9.8;2.5;;;;;;;13.2;63.72461;944.9581;;;;
2019/09/18 23:46:29;;;;;;;11.5;2.7;;;;;;;13.11;63.93945;944.992;;;;
2019/09/18 23:48:49;;;;;;;8.5;2.6;;;;;;;13.09;63.41992;944.9774;;;;
2019/09/18 23:51:15;;;;;;;8.3;2.7;;;;;;;13.01;64.30566;945.0078;;;;
2019/09/18 23:53:40;;;;;;;8.7;2.4;;;;;;;12.93;64.70703;944.9706;;;;
2019/09/18 23:56:12;;;;;;;8.1;2.5;;;;;;;12.84;64.56738;944.9377;;;;
2019/09/18 23:58:43;;;;;;;14.4;2.8;;;;;;;12.69;64.83105;944.9348;;;;
